Time;durP1;ratioP1;P1;durP2;ratioP2;P2;SDS_P1;SDS_P2;PMS_P1;PMS_P2;Temp;Humidity;BMP_temperature;BMP_pressure;BME280_temperature;BME280_humidity;BME280_pressure;Samples;Min_cycle;Max_cycle;Signal;HPM_P1;HPM_P2
2022/05/25 00:00:18;;;;;;;9.23;6.90;;;;;;;10.23;100.00;101189.34;5037999;28;20078;-46
2022/05/25 00:02:47;;;;;;;10.77;6.93;;;;;;;10.20;100.00;101188.78;5039807;28;20021;-45
2022/05/25 00:05:14;;;;;;;11.15;6.60;;;;;;;10.17;100.00;101197.94;5040267;28;20033;-45
2022/05/25 00:07:40;;;;;;;13.05;7.05;;;;;;;10.14;100.00;101200.09;5017375;28;20125;-44
2022/05/25 00:10:05;;;;;;;8.73;6.80;;;;;;;10.17;100.00;101197.13;5019710;28;20132;-43
2022/05/25 00:12:31;;;;;;;12.35;7.32;;;;;;;10.15;100.00;101205.28;5017625;28;20128;-45
2022/05/25 00:14:57;;;;;;;15.02;6.78;;;;;;;10.12;100.00;101207.41;5019067;28;20128;-48
2022/05/25 00:17:22;;;;;;;9.98;7.35;;;;;;;10.09;100.00;101206.69;5018750;28;20052;-47
2022/05/25 00:19:59;;;;;;;9.40;7.20;;;;;;;10.08;100.00;101210.38;5021014;28;20513;-45
2022/05/25 00:22:26;;;;;;;14.60;7.72;;;;;;;10.09;100.00;101203.19;5017607;28;20041;-45
2022/05/25 00:24:55;;;;;;;11.57;7.82;;;;;;;10.08;100.00;101199.69;5019051;28;20372;-42
2022/05/25 00:27:20;;;;;;;11.75;7.72;;;;;;;10.09;100.00;101204.03;5017811;28;20116;-43
2022/05/25 00:29:46;;;;;;;13.07;8.07;;;;;;;10.12;100.00;101212.75;5000559;28;20157;-42
2022/05/25 00:32:11;;;;;;;13.10;7.90;;;;;;;10.15;100.00;101209.75;5001249;28;20021;-44
2022/05/25 00:34:36;;;;;;;14.93;8.05;;;;;;;10.16;100.00;101212.28;5018414;28;20203;-46
2022/05/25 00:37:02;;;;;;;15.57;8.00;;;;;;;10.15;100.00;101209.75;5018229;28;20387;-45
2022/05/25 00:39:27;;;;;;;10.52;7.63;;;;;;;10.17;100.00;101215.81;5017195;28;20029;-44
2022/05/25 00:41:52;;;;;;;15.32;8.05;;;;;;;10.17;100.00;101207.78;5005241;28;20029;-42
2022/05/25 00:44:18;;;;;;;11.80;8.02;;;;;;;10.20;100.00;101208.34;5030122;28;20529;-44
2022/05/25 00:46:45;;;;;;;16.17;8.40;;;;;;;10.19;100.00;101213.81;5039719;28;20029;-43
2022/05/25 00:49:20;;;;;;;19.17;8.43;;;;;;;10.21;100.00;101207.31;5039141;28;20479;-46
2022/05/25 00:51:53;;;;;;;15.70;8.00;;;;;;;10.21;100.00;101217.19;5020520;28;20051;-44
2022/05/25 00:54:24;;;;;;;14.32;8.52;;;;;;;10.22;100.00;101216.19;5037831;28;20060;-43
2022/05/25 00:56:51;;;;;;;14.43;8.57;;;;;;;10.24;100.00;101216.88;5038132;28;20315;-43
2022/05/25 00:59:20;;;;;;;12.75;8.63;;;;;;;10.23;100.00;101225.88;5036828;28;20045;-44
2022/05/25 01:01:45;;;;;;;16.85;9.30;;;;;;;10.25;100.00;101223.88;5021084;28;20021;-44
2022/05/25 01:04:12;;;;;;;14.35;9.13;;;;;;;10.27;100.00;101227.25;5020168;28;20043;-43
2022/05/25 01:06:52;;;;;;;14.95;8.88;;;;;;;10.23;100.00;101228.53;5019039;28;20028;-43
2022/05/25 01:09:31;;;;;;;16.33;9.50;;;;;;;10.20;100.00;101227.03;5037740;28;20026;-43
2022/05/25 01:12:15;;;;;;;13.70;9.05;;;;;;;10.18;100.00;101225.47;5036748;28;20029;-43
2022/05/25 01:14:49;;;;;;;20.00;9.40;;;;;;;10.19;100.00;101230.66;5036751;28;20111;-44
2022/05/25 01:17:35;;;;;;;21.42;9.63;;;;;;;10.15;100.00;101228.44;5038677;28;20494;-43
2022/05/25 01:20:11;;;;;;;14.27;9.13;;;;;;;10.15;100.00;101231.09;5038414;28;20512;-43
2022/05/25 01:22:55;;;;;;;14.88;8.43;;;;;;;10.14;100.00;101229.44;5037640;28;20122;-47
2022/05/25 01:25:57;;;;;;;17.70;9.40;;;;;;;10.12;100.00;101239.44;5033039;28;20094;-44
2022/05/25 01:28:47;;;;;;;12.48;8.43;;;;;;;10.09;100.00;101233.38;5014626;28;20535;-42
2022/05/25 01:31:21;;;;;;;14.98;8.45;;;;;;;10.13;100.00;101233.91;5018116;28;20480;-43
2022/05/25 01:33:55;;;;;;;15.95;9.65;;;;;;;10.14;100.00;101246.28;5018146;28;20021;-44
2022/05/25 01:36:39;;;;;;;12.35;8.45;;;;;;;10.13;100.00;101241.09;5031682;28;20110;-45
2022/05/25 01:39:09;;;;;;;16.48;9.38;;;;;;;10.10;100.00;101236.91;5017684;28;20045;-44
2022/05/25 01:41:42;;;;;;;16.27;9.35;;;;;;;10.08;100.00;101239.72;5017685;28;20120;-44
2022/05/25 01:44:15;;;;;;;16.05;9.13;;;;;;;10.05;100.00;101237.34;5016592;28;20030;-42
2022/05/25 01:46:49;;;;;;;14.52;9.05;;;;;;;10.05;100.00;101245.34;5018090;28;20068;-43
2022/05/25 01:49:19;;;;;;;14.48;8.70;;;;;;;10.06;100.00;101241.72;5017648;28;20037;-43
2022/05/25 01:52:01;;;;;;;15.95;9.73;;;;;;;10.03;100.00;101241.13;5018384;28;20403;-45
2022/05/25 01:54:30;;;;;;;17.05;9.00;;;;;;;10.01;100.00;101235.97;5017046;28;20041;-43
2022/05/25 01:57:00;;;;;;;15.65;9.40;;;;;;;9.97;100.00;101250.59;5017039;28;20029;-44
2022/05/25 01:59:25;;;;;;;14.90;9.73;;;;;;;9.95;100.00;101249.91;4996826;28;20321;-43
2022/05/25 02:04:49;;;;;;;12.07;9.02;;;;;;;9.91;100.00;101243.16;5018001;28;20111;-43
2022/05/25 02:07:22;;;;;;;22.63;10.48;;;;;;;9.86;100.00;101243.63;5017972;28;20772;-42
2022/05/25 02:10:03;;;;;;;17.67;9.60;;;;;;;9.80;100.00;101243.34;5017278;28;20137;-42
2022/05/25 02:12:50;;;;;;;16.73;9.77;;;;;;;9.84;100.00;101247.41;5014318;28;20041;-45
2022/05/25 02:15:18;;;;;;;15.48;9.65;;;;;;;9.77;100.00;101247.16;5017087;28;20032;-45
2022/05/25 02:17:57;;;;;;;16.27;9.60;;;;;;;9.78;100.00;101253.34;5017558;28;21122;-43
2022/05/25 02:20:33;;;;;;;16.05;10.32;;;;;;;9.74;100.00;101243.94;5017862;28;20539;-43
2022/05/25 02:23:04;;;;;;;16.90;10.23;;;;;;;9.69;100.00;101247.03;5018741;28;20028;-45
2022/05/25 02:25:48;;;;;;;;;;;;;;;9.70;100.00;101246.88;5036825;28;20340;-46
2022/05/25 02:28:19;;;;;;;16.35;10.93;;;;;;;9.66;100.00;101256.19;5033953;28;19917;-42
2022/05/25 02:30:49;;;;;;;18.33;11.00;;;;;;;9.63;100.00;101253.78;5037839;28;20498;-45
2022/05/25 02:33:40;;;;;;;16.37;11.10;;;;;;;9.61;100.00;101263.78;5002096;28;20129;-44
2022/05/25 02:36:09;;;;;;;16.40;11.15;;;;;;;9.55;100.00;101261.66;5037231;28;20298;-44
2022/05/25 02:38:37;;;;;;;18.23;10.68;;;;;;;9.53;100.00;101264.47;5017546;28;20120;-44
2022/05/25 02:41:05;;;;;;;19.15;11.23;;;;;;;9.46;100.00;101260.72;5037105;28;20473;-46
2022/05/25 02:43:30;;;;;;;19.23;11.18;;;;;;;9.44;100.00;101269.84;5034281;28;20459;-41
2022/05/25 02:45:57;;;;;;;23.70;11.85;;;;;;;9.40;100.00;101277.28;5018760;28;20082;-42
2022/05/25 02:48:22;;;;;;;16.85;10.43;;;;;;;9.36;100.00;101267.88;5035519;28;20519;-45
2022/05/25 02:50:47;;;;;;;20.48;11.40;;;;;;;9.32;100.00;101264.66;5036951;28;20024;-45
2022/05/25 02:53:13;;;;;;;17.88;10.80;;;;;;;9.27;100.00;101266.09;5036730;28;20062;-44
2022/05/25 02:55:38;;;;;;;16.50;11.02;;;;;;;9.26;100.00;101264.41;5036754;28;20031;-45
2022/05/25 02:58:04;;;;;;;14.35;10.00;;;;;;;9.28;100.00;101270.41;5014712;28;20097;-45
2022/05/25 03:00:29;;;;;;;18.50;9.85;;;;;;;9.27;100.00;101276.75;5036059;28;20047;-44
2022/05/25 03:02:56;;;;;;;16.95;9.80;;;;;;;9.24;100.00;101288.53;5036114;28;20097;-43
2022/05/25 03:05:22;;;;;;;20.13;9.73;;;;;;;9.20;100.00;101275.63;5035979;28;20563;-45
2022/05/25 03:07:47;;;;;;;15.05;10.13;;;;;;;9.20;100.00;101292.47;5036679;28;20115;-42
2022/05/25 03:10:13;;;;;;;13.65;9.80;;;;;;;9.14;100.00;101279.69;5036649;28;20121;-44
2022/05/25 03:12:38;;;;;;;16.92;9.40;;;;;;;9.13;100.00;101278.00;5033869;28;20036;-42
2022/05/25 03:15:05;;;;;;;19.77;9.25;;;;;;;9.12;100.00;101284.31;5036954;28;20024;-45
2022/05/25 03:17:30;;;;;;;15.80;9.10;;;;;;;9.11;100.00;101291.50;5035783;28;20433;-43
2022/05/25 03:19:57;;;;;;;16.40;8.77;;;;;;;9.10;100.00;101294.28;5035652;28;20100;-43
2022/05/25 03:22:23;;;;;;;13.02;8.65;;;;;;;9.10;100.00;101295.13;5035605;28;20472;-44
2022/05/25 03:24:48;;;;;;;18.52;8.70;;;;;;;9.11;100.00;101293.28;5036763;28;20476;-44
2022/05/25 03:27:14;;;;;;;12.50;8.82;;;;;;;9.10;100.00;101302.28;5035607;28;20033;-43
2022/05/25 03:29:41;;;;;;;15.05;8.48;;;;;;;9.10;100.00;101289.78;5034925;28;20017;-45
2022/05/25 03:32:07;;;;;;;13.70;8.60;;;;;;;9.10;100.00;101291.63;5036695;28;20123;-44
2022/05/25 03:34:33;;;;;;;11.93;8.00;;;;;;;9.10;100.00;101297.78;5036684;28;20432;-44
2022/05/25 03:36:58;;;;;;;15.15;8.02;;;;;;;9.10;100.00;101300.44;5040612;28;20025;-44
2022/05/25 03:39:25;;;;;;;12.75;7.57;;;;;;;9.10;100.00;101304.94;5038911;28;20484;-45
2022/05/25 03:42:07;;;;;;;12.63;7.90;;;;;;;9.07;100.00;101298.06;5021087;28;20029;-43
2022/05/25 03:44:32;;;;;;;;;;;;;;;9.11;100.00;101309.28;5038829;28;20117;-45
2022/05/25 03:46:58;;;;;;;12.95;7.18;;;;;;;9.08;100.00;101312.22;5039863;28;19995;-42
2022/05/25 03:49:23;;;;;;;14.57;7.13;;;;;;;9.05;100.00;101309.84;5038863;28;20456;-43
2022/05/25 03:51:48;;;;;;;15.70;7.10;;;;;;;9.05;100.00;101316.03;5040427;28;20025;-43
2022/05/25 03:54:14;;;;;;;13.57;7.15;;;;;;;9.03;100.00;101320.66;5039837;28;20029;-44
2022/05/25 03:56:39;;;;;;;16.92;7.50;;;;;;;9.04;100.00;101317.00;5038453;28;20596;-44
2022/05/25 03:59:05;;;;;;;12.18;6.82;;;;;;;9.03;100.00;101318.00;5034062;28;20049;-42
2022/05/25 04:01:32;;;;;;;13.57;6.95;;;;;;;9.01;100.00;101316.44;5021875;28;20111;-41
2022/05/25 04:03:58;;;;;;;10.98;6.80;;;;;;;9.00;100.00;101320.09;5019409;28;20106;-44
2022/05/25 04:06:25;;;;;;;11.40;6.68;;;;;;;9.02;100.00;101324.28;5018914;28;20025;-44
2022/05/25 04:08:50;;;;;;;15.18;6.70;;;;;;;9.03;100.00;101325.13;5019566;28;20029;-43
2022/05/25 04:11:15;;;;;;;12.27;6.68;;;;;;;9.01;100.00;101317.25;5030550;28;20116;-43
2022/05/25 04:13:40;;;;;;;10.02;6.28;;;;;;;9.05;100.00;101332.00;5038484;28;20069;-42
2022/05/25 04:16:06;;;;;;;13.05;6.53;;;;;;;9.06;100.00;101327.50;5039958;28;20040;-41
2022/05/25 04:18:32;;;;;;;15.80;6.32;;;;;;;9.07;100.00;101329.19;5038585;28;20033;-43
2022/05/25 04:20:57;;;;;;;11.55;6.45;;;;;;;9.11;100.00;101336.78;5038937;28;20063;-43
2022/05/25 04:23:26;;;;;;;17.35;5.82;;;;;;;9.13;100.00;101336.63;5038245;28;20056;-43
2022/05/25 04:25:52;;;;;;;10.52;5.82;;;;;;;9.10;100.00;101323.59;5031956;28;20114;-43
2022/05/25 04:28:17;;;;;;;12.95;6.32;;;;;;;9.12;100.00;101332.28;5027572;28;20067;-43
2022/05/25 04:30:43;;;;;;;10.18;5.50;;;;;;;9.17;100.00;101343.38;5033506;28;20034;-42
2022/05/25 04:33:08;;;;;;;10.90;5.55;;;;;;;9.17;100.00;101330.03;5018909;28;20022;-44
2022/05/25 04:35:33;;;;;;;8.93;5.60;;;;;;;9.18;100.00;101336.22;5022928;28;20436;-45
2022/05/25 04:37:58;;;;;;;14.25;6.40;;;;;;;9.19;100.00;101337.91;5038469;28;20021;-43
2022/05/25 04:40:40;;;;;;;11.48;5.28;;;;;;;9.18;100.00;101338.88;5037852;28;20036;-42
2022/05/25 04:43:08;;;;;;;11.55;5.60;;;;;;;9.20;100.00;101335.09;5016899;28;20056;-46
2022/05/25 04:45:36;;;;;;;16.25;6.10;;;;;;;9.25;100.00;101345.31;5026249;28;20057;-45
2022/05/25 04:48:02;;;;;;;14.63;5.95;;;;;;;9.27;100.00;101343.38;5038262;28;20029;-43
2022/05/25 04:50:32;;;;;;;10.68;5.95;;;;;;;9.27;100.00;101338.88;5037871;28;20041;-42
2022/05/25 04:52:59;;;;;;;10.07;5.60;;;;;;;9.30;100.00;101345.75;5035860;28;20512;-44
2022/05/25 04:58:22;;;;;;;12.73;6.03;;;;;;;9.33;100.00;101343.66;5034724;28;20455;-43
2022/05/25 05:00:48;;;;;;;12.82;5.72;;;;;;;9.39;100.00;101362.75;5037536;28;20060;-43
2022/05/25 05:03:14;;;;;;;11.43;5.95;;;;;;;9.37;100.00;101351.34;5037777;28;20538;-44
2022/05/25 05:05:39;;;;;;;14.45;6.25;;;;;;;9.44;100.00;101358.66;5038417;28;20033;-42
2022/05/25 05:08:06;;;;;;;15.45;6.15;;;;;;;9.46;100.00;101358.53;5021051;28;20558;-46
2022/05/25 05:10:32;;;;;;;17.80;6.68;;;;;;;9.47;100.00;101355.72;5029962;28;20100;-44
2022/05/25 05:12:57;;;;;;;15.38;6.32;;;;;;;9.52;100.00;101358.81;5016675;28;20539;-43
2022/05/25 05:15:22;;;;;;;14.85;7.07;;;;;;;9.56;100.00;101359.34;5037144;28;20047;-43
2022/05/25 05:17:47;;;;;;;18.30;6.60;;;;;;;9.60;100.00;101351.91;5037450;28;20029;-44
2022/05/25 05:20:13;;;;;;;16.17;7.55;;;;;;;9.64;100.00;101354.16;5020465;28;20183;-46
2022/05/25 05:22:38;;;;;;;19.75;6.85;;;;;;;9.68;100.00;101355.53;5037143;28;20408;-44
2022/05/25 05:25:05;;;;;;;15.48;6.78;;;;;;;9.72;100.00;101356.09;5037826;28;20109;-43
2022/05/25 05:27:30;;;;;;;15.15;6.63;;;;;;;9.76;100.00;101345.97;5034316;28;20526;-43
2022/05/25 05:29:59;;;;;;;17.58;6.90;;;;;;;9.84;100.00;101348.78;5038427;28;20151;-42
2022/05/25 05:32:25;;;;;;;16.80;7.10;;;;;;;9.89;100.00;101354.53;5036597;28;20089;-43
2022/05/25 05:34:51;;;;;;;16.17;6.93;;;;;;;9.93;100.00;101352.41;5019996;28;20064;-45
2022/05/25 05:37:21;;;;;;;12.93;6.60;;;;;;;9.99;100.00;101343.81;5004256;28;20028;-44
2022/05/25 05:39:50;;;;;;;15.80;6.65;;;;;;;10.04;100.00;101342.41;5027512;28;20061;-45
2022/05/25 05:42:18;;;;;;;16.65;6.80;;;;;;;10.11;100.00;101336.50;5033894;28;20045;-46
2022/05/25 05:44:54;;;;;;;16.00;7.25;;;;;;;10.18;100.00;101335.78;5036784;28;20023;-44
2022/05/25 05:47:25;;;;;;;20.98;6.88;;;;;;;10.26;100.00;101335.84;5036238;28;20068;-44
2022/05/25 05:49:51;;;;;;;15.27;6.85;;;;;;;10.35;100.00;101338.66;5037596;28;20028;-43
2022/05/25 05:52:16;;;;;;;12.15;6.45;;;;;;;10.41;100.00;101333.56;5019185;28;20027;-45
2022/05/25 05:54:43;;;;;;;15.25;6.90;;;;;;;10.48;100.00;101335.66;5038405;28;20062;-44
2022/05/25 05:57:09;;;;;;;17.63;7.03;;;;;;;10.55;100.00;101350.94;5035972;28;20029;-44
2022/05/25 05:59:34;;;;;;;13.52;7.05;;;;;;;10.62;100.00;101352.03;5030489;28;20056;-43
2022/05/25 06:02:00;;;;;;;15.02;6.28;;;;;;;10.70;100.00;101350.44;5037252;28;20561;-44
2022/05/25 06:04:25;;;;;;;16.55;7.53;;;;;;;10.80;100.00;101353.91;5036534;28;20139;-46
2022/05/25 06:06:50;;;;;;;12.60;7.22;;;;;;;10.90;100.00;101354.69;5037858;28;20021;-45
2022/05/25 06:09:16;;;;;;;18.13;7.00;;;;;;;10.95;100.00;101357.75;5037165;28;20025;-43
2022/05/25 06:11:42;;;;;;;14.18;7.03;;;;;;;11.05;100.00;101363.03;5018750;28;20055;-44
2022/05/25 06:14:09;;;;;;;17.63;7.65;;;;;;;11.10;100.00;101355.38;5035465;28;20025;-44
2022/05/25 06:19:29;;;;;;;21.05;7.35;;;;;;;11.33;100.00;101373.66;5034001;28;20059;-46
2022/05/25 06:21:58;;;;;;;12.43;8.05;;;;;;;11.42;100.00;101377.22;5034526;28;20111;-43
2022/05/25 06:24:25;;;;;;;18.88;7.70;;;;;;;11.53;100.00;101385.03;5033856;28;20482;-42
2022/05/25 06:26:50;;;;;;;18.30;8.15;;;;;;;11.61;100.00;101382.44;5036215;28;20032;-46
2022/05/25 06:29:17;;;;;;;17.38;8.98;;;;;;;11.71;100.00;101385.00;5036097;28;20036;-43
2022/05/25 06:31:43;;;;;;;21.38;9.05;;;;;;;11.75;100.00;101381.03;5037589;28;20490;-44
2022/05/25 06:34:09;;;;;;;20.83;9.65;;;;;;;11.77;100.00;101393.22;5036887;28;20037;-44
2022/05/25 06:36:34;;;;;;;17.88;8.93;;;;;;;11.76;100.00;101386.22;5036884;28;20067;-45
2022/05/25 06:39:00;;;;;;;23.60;9.75;;;;;;;11.76;100.00;101391.56;5036351;28;20020;-43
2022/05/25 06:41:26;;;;;;;23.42;11.10;;;;;;;11.82;100.00;101398.13;5032111;28;20091;-43
2022/05/25 06:43:52;;;;;;;17.35;10.98;;;;;;;11.99;100.00;101391.09;5026778;28;20272;-43
2022/05/25 06:46:19;;;;;;;19.20;12.95;;;;;;;12.16;100.00;101392.03;5018109;28;20626;-43
2022/05/25 06:48:49;;;;;;;31.35;16.10;;;;;;;12.13;100.00;101403.91;5036772;28;20239;-44
2022/05/25 06:51:20;;;;;;;30.98;16.70;;;;;;;12.05;100.00;101403.84;5036936;28;20079;-42
2022/05/25 06:53:46;;;;;;;27.17;17.13;;;;;;;12.04;100.00;101407.53;5035453;28;20032;-43
2022/05/25 06:56:11;;;;;;;26.50;17.00;;;;;;;12.13;100.00;101414.63;5035844;28;20033;-45
2022/05/25 06:58:37;;;;;;;24.65;16.30;;;;;;;12.33;100.00;101409.03;5034047;28;20495;-42
2022/05/25 07:01:03;;;;;;;28.08;16.90;;;;;;;12.60;100.00;101415.22;5036582;28;20160;-45
2022/05/25 07:03:29;;;;;;;27.35;16.48;;;;;;;12.85;100.00;101413.47;5016242;28;20043;-44
2022/05/25 07:05:54;;;;;;;25.63;16.58;;;;;;;13.05;100.00;101405.97;5035387;28;20556;-44
2022/05/25 07:08:20;;;;;;;30.50;17.20;;;;;;;13.20;100.00;101407.03;5035445;28;20139;-45
2022/05/25 07:10:46;;;;;;;26.85;16.98;;;;;;;13.26;100.00;101421.63;5039987;28;20033;-44
2022/05/25 07:13:12;;;;;;;27.95;16.50;;;;;;;13.31;100.00;101418.47;5039416;28;20176;-43
2022/05/25 07:15:38;;;;;;;32.50;18.65;;;;;;;13.33;100.00;101427.22;5040639;28;20053;-45
2022/05/25 07:18:03;;;;;;;28.98;18.65;;;;;;;13.26;100.00;101429.69;5040127;28;20532;-43
2022/05/25 07:20:29;;;;;;;34.35;22.05;;;;;;;13.07;100.00;101439.69;5020664;28;20042;-43
2022/05/25 07:22:54;;;;;;;38.13;23.05;;;;;;;13.00;100.00;101432.44;5021502;28;20112;-45
2022/05/25 07:25:19;;;;;;;38.03;24.63;;;;;;;12.93;100.00;101439.47;5024036;28;20037;-45
2022/05/25 07:27:44;;;;;;;38.53;25.38;;;;;;;12.89;100.00;101449.66;5018152;28;20044;-46
2022/05/25 07:30:10;;;;;;;38.05;25.95;;;;;;;12.84;100.00;101442.09;5020290;28;20152;-45
2022/05/25 07:32:36;;;;;;;44.00;27.15;;;;;;;12.96;100.00;101453.38;5019316;28;20080;-42
2022/05/25 07:35:04;;;;;;;41.22;27.75;;;;;;;13.09;100.00;101444.88;5020179;28;20025;-44
2022/05/25 07:37:38;;;;;;;44.60;30.33;;;;;;;13.23;100.00;101438.88;5027712;28;20036;-46
2022/05/25 07:40:39;;;;;;;45.28;29.58;;;;;;;13.71;100.00;101443.69;5039862;28;20432;-44
2022/05/25 07:43:11;;;;;;;42.28;26.70;;;;;;;14.26;100.00;101447.53;5036019;28;20033;-46
2022/05/25 07:45:36;;;;;;;39.85;27.13;;;;;;;14.23;100.00;101450.56;5039889;28;20104;-44
2022/05/25 07:48:02;;;;;;;39.58;25.98;;;;;;;14.17;100.00;101444.84;5039801;28;20119;-46
2022/05/25 07:50:28;;;;;;;39.33;25.23;;;;;;;14.16;100.00;101453.91;5022127;28;20096;-47
2022/05/25 07:52:56;;;;;;;37.25;22.75;;;;;;;13.96;100.00;101448.03;5027698;28;20491;-43
2022/05/25 07:55:22;;;;;;;36.35;23.70;;;;;;;13.82;100.00;101458.63;5038350;28;20091;-45
2022/05/25 07:57:48;;;;;;;37.75;22.95;;;;;;;13.77;100.00;101453.75;5036984;28;20061;-45
2022/05/25 08:00:15;;;;;;;32.22;22.90;;;;;;;13.98;100.00;101450.56;5021639;28;20435;-46
2022/05/25 08:05:44;;;;;;;34.42;22.85;;;;;;;14.18;100.00;101459.13;5038348;28;20098;-42
2022/05/25 08:08:17;;;;;;;31.38;19.65;;;;;;;14.24;100.00;101461.13;5019289;28;20686;-47
2022/05/25 08:10:46;;;;;;;26.33;18.45;;;;;;;14.31;100.00;101463.97;5019073;28;20033;-43
2022/05/25 08:13:16;;;;;;;29.38;19.05;;;;;;;14.28;100.00;101462.47;5018668;28;20033;-43
2022/05/25 08:15:43;;;;;;;29.50;17.75;;;;;;;14.43;100.00;101459.91;5019734;28;20044;-43
2022/05/25 08:18:10;;;;;;;22.20;14.60;;;;;;;14.50;100.00;101457.38;5001058;28;20131;-43
2022/05/25 08:20:35;;;;;;;20.52;13.68;;;;;;;14.64;100.00;101472.81;5017981;28;20925;-44
2022/05/25 08:23:06;;;;;;;18.85;12.38;;;;;;;14.68;100.00;101463.41;5036755;28;20079;-42
2022/05/25 08:25:32;;;;;;;20.60;11.20;;;;;;;14.80;100.00;101455.81;5037519;28;20615;-45
2022/05/25 08:27:57;;;;;;;14.48;10.15;;;;;;;14.90;100.00;101467.19;5037313;28;20029;-46
2022/05/25 08:30:22;;;;;;;17.05;9.43;;;;;;;15.06;100.00;101458.19;5038174;28;20475;-45
2022/05/25 08:32:48;;;;;;;12.98;8.80;;;;;;;15.14;100.00;101448.41;5038835;28;20025;-43
2022/05/25 08:35:14;;;;;;;15.38;8.73;;;;;;;15.19;100.00;101451.41;5039522;28;20029;-43
2022/05/25 08:37:41;;;;;;;15.00;8.82;;;;;;;15.20;100.00;101459.31;5037915;28;20049;-46
2022/05/25 08:40:08;;;;;;;15.15;8.85;;;;;;;15.25;100.00;101459.59;5038221;28;20021;-43
2022/05/25 08:42:43;;;;;;;12.95;8.43;;;;;;;15.47;100.00;101449.88;5035912;28;20059;-43
2022/05/25 08:45:08;;;;;;;13.40;8.10;;;;;;;15.72;99.57;101448.91;5038964;28;20028;-44
2022/05/25 08:47:36;;;;;;;12.95;7.32;;;;;;;15.87;96.72;101452.50;5037932;28;20032;-48
2022/05/25 08:50:01;;;;;;;11.27;6.80;;;;;;;15.87;95.97;101457.03;5038849;28;20021;-43
2022/05/25 08:52:29;;;;;;;13.02;7.68;;;;;;;15.95;98.97;101451.59;5020183;28;20032;-43
2022/05/25 08:54:55;;;;;;;13.40;6.22;;;;;;;16.20;97.26;101449.50;5038856;28;20080;-44
2022/05/25 08:57:32;;;;;;;12.07;6.03;;;;;;;16.44;96.09;101440.31;5034630;28;20081;-43
2022/05/25 09:00:13;;;;;;;12.80;5.60;;;;;;;16.72;94.39;101448.59;5038368;28;20074;-46
2022/05/25 09:02:39;;;;;;;10.68;5.60;;;;;;;16.89;91.01;101445.75;5037805;28;20170;-47
2022/05/25 09:05:18;;;;;;;9.88;5.47;;;;;;;17.11;90.62;101439.38;5039076;28;20042;-46
2022/05/25 09:07:57;;;;;;;9.90;4.97;;;;;;;17.38;91.33;101449.63;5020261;28;20120;-44
2022/05/25 09:10:23;;;;;;;10.80;5.43;;;;;;;17.35;87.34;101448.16;5037931;28;20511;-47
2022/05/25 09:12:56;;;;;;;7.05;4.28;;;;;;;17.29;86.17;101452.47;5036328;28;20017;-43
2022/05/25 09:15:32;;;;;;;10.82;3.60;;;;;;;17.06;81.63;101459.88;5017589;28;20029;-45
2022/05/25 09:18:13;;;;;;;6.82;3.45;;;;;;;16.83;82.22;101449.16;5017243;28;20499;-48
2022/05/25 09:20:42;;;;;;;;;;;;;;;17.01;85.58;101455.03;5000274;28;20051;-46
2022/05/25 09:23:09;;;;;;;6.72;3.35;;;;;;;17.35;84.26;101458.94;5017618;28;19944;-44
2022/05/25 09:25:35;;;;;;;8.60;3.70;;;;;;;17.62;81.70;101443.03;5016029;28;20039;-44
2022/05/25 09:28:21;;;;;;;7.55;3.47;;;;;;;17.87;82.74;101455.13;5036691;28;20037;-45
2022/05/25 09:30:53;;;;;;;6.50;2.83;;;;;;;17.76;78.26;101462.88;5038471;28;20047;-45
2022/05/25 09:33:26;;;;;;;7.07;2.40;;;;;;;17.73;75.37;101468.69;5036104;28;20119;-46
2022/05/25 09:35:59;;;;;;;6.22;2.40;;;;;;;17.38;74.77;101466.66;5038114;28;20024;-44
2022/05/25 09:38:31;;;;;;;13.20;4.45;;;;;;;17.12;78.00;101465.34;5036574;28;20461;-45
2022/05/25 09:41:04;;;;;;;12.88;3.10;;;;;;;17.21;79.24;101465.22;5036800;28;20143;-46
2022/05/25 09:43:31;;;;;;;5.00;2.15;;;;;;;17.63;74.50;101479.78;5035233;28;20400;-46
2022/05/25 09:46:03;;;;;;;6.07;2.00;;;;;;;17.69;72.89;101470.94;5038474;28;20060;-44
2022/05/25 09:48:31;;;;;;;6.10;2.20;;;;;;;17.35;74.12;101469.75;5036613;28;20033;-44
2022/05/25 09:51:03;;;;;;;6.40;2.50;;;;;;;17.49;76.85;101473.41;5038096;28;20017;-47
2022/05/25 09:53:48;;;;;;;7.45;2.20;;;;;;;17.32;73.20;101467.44;5053028;28;20913;-42
2022/05/25 09:56:21;;;;;;;7.55;2.30;;;;;;;17.01;72.15;101482.00;5053368;28;20733;-45
2022/05/25 09:58:53;;;;;;;6.07;2.50;;;;;;;16.89;74.67;101488.91;5052317;28;20024;-44
2022/05/25 10:01:46;;;;;;;7.88;2.50;;;;;;;17.12;76.70;101480.69;5046002;28;20031;-46
2022/05/25 10:04:33;;;;;;;4.68;3.08;;;;;;;17.44;73.51;101479.38;5050562;28;20354;-45
2022/05/25 10:06:59;;;;;;;4.45;3.40;;;;;;;17.63;69.25;101494.13;5053424;28;20395;-43
2022/05/25 10:09:27;;;;;;;7.03;3.58;;;;;;;17.81;69.53;101484.75;5053785;28;20185;-45
2022/05/25 10:12:15;;;;;;;8.13;3.13;;;;;;;18.24;69.68;101479.31;5052970;28;20150;-43
2022/05/25 10:14:45;;;;;;;5.30;2.92;;;;;;;18.51;65.25;101472.22;5052452;28;20037;-45
2022/05/25 10:17:14;;;;;;;3.70;2.55;;;;;;;18.82;65.53;101474.53;5052908;28;20109;-44
2022/05/25 10:19:49;;;;;;;6.30;2.25;;;;;;;18.75;62.73;101476.31;5052524;28;20127;-46
2022/05/25 10:22:43;;;;;;;5.65;2.30;;;;;;;18.60;63.03;101481.03;5053520;28;20036;-43
2022/05/25 10:25:27;;;;;;;4.95;2.50;;;;;;;18.32;64.12;101475.66;5044094;28;20043;-42
2022/05/25 10:27:54;;;;;;;5.32;2.40;;;;;;;18.43;61.65;101477.78;5052437;28;20035;-45
2022/05/25 10:39:39;;;;;;;4.55;2.13;;;;;;;18.97;62.32;101451.91;5053135;28;20138;-45
2022/05/25 10:42:45;;;;;;;4.13;1.85;;;;;;;19.44;61.52;101446.63;5044054;28;20021;-44
2022/05/25 10:45:40;;;;;;;4.13;1.92;;;;;;;19.28;58.00;101447.84;5033599;28;20029;-44
2022/05/25 10:48:37;;;;;;;8.68;1.73;;;;;;;19.52;57.74;101458.13;5028958;28;20043;-44
2022/05/25 10:51:08;;;;;;;2.80;1.50;;;;;;;19.70;59.19;101457.50;5032183;28;20478;-45
2022/05/25 10:53:37;;;;;;;;;;;;;;;19.85;61.18;101454.63;5032494;28;20041;-46
2022/05/25 10:56:24;;;;;;;12.95;1.77;;;;;;;19.18;59.07;101456.38;5032089;28;19920;-46
2022/05/25 10:59:22;;;;;;;3.97;1.80;;;;;;;18.92;60.54;101457.09;5031494;28;20029;-46
2022/05/25 11:02:16;;;;;;;4.72;1.40;;;;;;;18.79;60.88;101452.44;5032999;28;20425;-43
2022/05/25 11:05:02;;;;;;;4.45;1.55;;;;;;;19.16;62.82;101451.16;5035482;28;20103;-44
2022/05/25 11:07:42;;;;;;;5.85;1.20;;;;;;;19.14;60.01;101450.50;5018406;28;20301;-44
2022/05/25 11:10:24;;;;;;;5.35;1.45;;;;;;;19.16;59.23;101461.13;5018853;28;20052;-45
2022/05/25 11:13:04;;;;;;;3.55;1.17;;;;;;;19.25;58.50;101449.09;5017686;28;20078;-47
2022/05/25 11:16:02;;;;;;;5.57;1.38;;;;;;;19.46;55.63;101452.69;5019003;28;20026;-48
2022/05/25 11:18:56;;;;;;;6.05;1.38;;;;;;;19.47;57.98;101454.38;5018144;28;20029;-47
2022/05/25 11:21:26;;;;;;;12.15;1.48;;;;;;;19.07;56.54;101446.13;5019271;28;20037;-49
2022/05/25 11:24:21;;;;;;;3.88;1.17;;;;;;;18.68;58.02;101436.75;5019223;28;20545;-44
2022/05/25 11:26:53;;;;;;;4.35;1.10;;;;;;;18.31;59.68;101446.94;5019261;28;20129;-49
2022/05/25 11:29:27;;;;;;;;;;;;;;;18.31;61.43;101441.53;5017974;28;20112;-44
2022/05/25 11:32:03;;;;;;;4.10;0.90;;;;;;;18.14;61.33;101431.00;5019303;28;19913;-45
2022/05/25 11:35:00;;;;;;;2.30;0.95;;;;;;;18.27;64.64;101438.38;5018229;28;20452;-45
2022/05/25 11:37:47;;;;;;;6.85;1.50;;;;;;;18.27;60.19;101439.22;5018468;28;20432;-46
2022/05/25 11:40:44;;;;;;;3.92;0.98;;;;;;;18.29;57.96;101440.88;5018082;28;20666;-46
2022/05/25 11:43:12;;;;;;;6.60;1.00;;;;;;;18.20;56.84;101441.03;5017323;28;20105;-45
2022/05/25 11:46:05;;;;;;;8.70;0.85;;;;;;;18.06;57.89;101448.22;5018705;28;20112;-46
2022/05/25 11:48:53;;;;;;;8.20;1.35;;;;;;;18.33;59.72;101451.13;5018487;28;20029;-44
2022/05/25 11:51:24;;;;;;;5.30;1.00;;;;;;;18.75;55.96;101448.44;5017973;28;20033;-44